sensor_id;sensor_type;location;lat;lon;timestamp;P1;durP1;ratioP1;P2;durP2;ratioP2
77798;SDS011;66989;50.426;15.352;2023-04-25T00:01:46;2.83;;;1.27;;
77798;SDS011;66989;50.426;15.352;2023-04-25T00:04:12;1.75;;;1.38;;
77798;SDS011;66989;50.426;15.352;2023-04-25T00:06:38;3.10;;;1.55;;
77798;SDS011;66989;50.426;15.352;2023-04-25T00:09:04;3.92;;;1.67;;
77798;SDS011;66989;50.426;15.352;2023-04-25T00:11:32;2.25;;;1.30;;
77798;SDS011;66989;50.426;15.352;2023-04-25T00:13:58;1.60;;;1.38;;
77798;SDS011;66989;50.426;15.352;2023-04-25T00:16:24;3.30;;;1.08;;
77798;SDS011;66989;50.426;15.352;2023-04-25T00:18:50;2.60;;;1.10;;
77798;SDS011;66989;50.426;15.352;2023-04-25T00:21:18;2.80;;;2.00;;
77798;SDS011;66989;50.426;15.352;2023-04-25T00:23:44;2.70;;;1.55;;
77798;SDS011;66989;50.426;15.352;2023-04-25T00:26:10;1.92;;;1.20;;
77798;SDS011;66989;50.426;15.352;2023-04-25T00:28:36;1.95;;;1.55;;
77798;SDS011;66989;50.426;15.352;2023-04-25T00:31:02;1.83;;;1.55;;
77798;SDS011;66989;50.426;15.352;2023-04-25T00:33:28;2.97;;;1.73;;
77798;SDS011;66989;50.426;15.352;2023-04-25T00:35:54;3.63;;;1.25;;
77798;SDS011;66989;50.426;15.352;2023-04-25T00:38:20;5.35;;;1.25;;
77798;SDS011;66989;50.426;15.352;2023-04-25T00:40:45;3.57;;;2.07;;
77798;SDS011;66989;50.426;15.352;2023-04-25T00:43:10;2.50;;;1.75;;
77798;SDS011;66989;50.426;15.352;2023-04-25T00:45:37;2.23;;;1.40;;
77798;SDS011;66989;50.426;15.352;2023-04-25T00:48:04;2.17;;;1.73;;
77798;SDS011;66989;50.426;15.352;2023-04-25T00:50:30;2.80;;;1.80;;
77798;SDS011;66989;50.426;15.352;2023-04-25T00:52:55;3.38;;;2.03;;
77798;SDS011;66989;50.426;15.352;2023-04-25T00:55:21;2.20;;;1.30;;
77798;SDS011;66989;50.426;15.352;2023-04-25T00:57:46;4.38;;;1.65;;
77798;SDS011;66989;50.426;15.352;2023-04-25T01:00:12;2.28;;;1.40;;
77798;SDS011;66989;50.426;15.352;2023-04-25T01:02:40;1.63;;;1.48;;
77798;SDS011;66989;50.426;15.352;2023-04-25T01:05:07;3.05;;;1.38;;
77798;SDS011;66989;50.426;15.352;2023-04-25T01:07:33;4.03;;;2.40;;
77798;SDS011;66989;50.426;15.352;2023-04-25T01:09:58;2.13;;;1.92;;
77798;SDS011;66989;50.426;15.352;2023-04-25T01:12:24;3.22;;;1.67;;
77798;SDS011;66989;50.426;15.352;2023-04-25T01:14:50;3.28;;;2.28;;
77798;SDS011;66989;50.426;15.352;2023-04-25T01:17:15;3.47;;;3.17;;
77798;SDS011;66989;50.426;15.352;2023-04-25T01:19:43;4.70;;;2.50;;
77798;SDS011;66989;50.426;15.352;2023-04-25T01:22:09;3.38;;;2.58;;
77798;SDS011;66989;50.426;15.352;2023-04-25T01:24:35;3.97;;;2.10;;
77798;SDS011;66989;50.426;15.352;2023-04-25T01:27:02;3.03;;;2.63;;
77798;SDS011;66989;50.426;15.352;2023-04-25T01:29:28;2.72;;;1.80;;
77798;SDS011;66989;50.426;15.352;2023-04-25T01:31:54;2.85;;;2.33;;
77798;SDS011;66989;50.426;15.352;2023-04-25T01:34:19;2.80;;;2.05;;
77798;SDS011;66989;50.426;15.352;2023-04-25T01:36:46;2.28;;;1.75;;
77798;SDS011;66989;50.426;15.352;2023-04-25T01:39:14;7.20;;;2.40;;
77798;SDS011;66989;50.426;15.352;2023-04-25T01:41:40;2.63;;;2.40;;
77798;SDS011;66989;50.426;15.352;2023-04-25T01:44:06;3.10;;;2.30;;
77798;SDS011;66989;50.426;15.352;2023-04-25T01:46:32;3.33;;;2.05;;
77798;SDS011;66989;50.426;15.352;2023-04-25T01:48:58;2.97;;;2.20;;
77798;SDS011;66989;50.426;15.352;2023-04-25T01:51:24;3.47;;;2.40;;
77798;SDS011;66989;50.426;15.352;2023-04-25T01:53:49;3.80;;;2.63;;
77798;SDS011;66989;50.426;15.352;2023-04-25T01:56:15;3.28;;;2.53;;
77798;SDS011;66989;50.426;15.352;2023-04-25T01:58:43;3.20;;;2.20;;
77798;SDS011;66989;50.426;15.352;2023-04-25T02:01:08;4.13;;;2.80;;
77798;SDS011;66989;50.426;15.352;2023-04-25T02:03:34;2.67;;;2.08;;
77798;SDS011;66989;50.426;15.352;2023-04-25T02:06:00;3.25;;;2.30;;
77798;SDS011;66989;50.426;15.352;2023-04-25T02:08:25;2.78;;;2.30;;
77798;SDS011;66989;50.426;15.352;2023-04-25T02:10:51;3.05;;;2.70;;
77798;SDS011;66989;50.426;15.352;2023-04-25T02:13:17;5.40;;;2.97;;
77798;SDS011;66989;50.426;15.352;2023-04-25T02:15:42;3.58;;;2.15;;
77798;SDS011;66989;50.426;15.352;2023-04-25T02:18:08;3.20;;;2.67;;
77798;SDS011;66989;50.426;15.352;2023-04-25T02:20:35;5.10;;;2.92;;
77798;SDS011;66989;50.426;15.352;2023-04-25T02:23:01;3.85;;;2.78;;
77798;SDS011;66989;50.426;15.352;2023-04-25T02:25:27;7.40;;;3.72;;
77798;SDS011;66989;50.426;15.352;2023-04-25T02:27:52;4.70;;;3.40;;
77798;SDS011;66989;50.426;15.352;2023-04-25T02:30:18;5.50;;;3.25;;
77798;SDS011;66989;50.426;15.352;2023-04-25T02:32:44;4.72;;;3.22;;
77798;SDS011;66989;50.426;15.352;2023-04-25T02:35:10;5.50;;;3.28;;
77798;SDS011;66989;50.426;15.352;2023-04-25T02:37:36;5.00;;;3.50;;
77798;SDS011;66989;50.426;15.352;2023-04-25T02:40:03;6.60;;;4.55;;
77798;SDS011;66989;50.426;15.352;2023-04-25T02:42:29;5.18;;;3.97;;
77798;SDS011;66989;50.426;15.352;2023-04-25T02:44:55;5.32;;;4.05;;
77798;SDS011;66989;50.426;15.352;2023-04-25T02:47:20;7.18;;;4.28;;
77798;SDS011;66989;50.426;15.352;2023-04-25T02:49:46;6.28;;;3.92;;
77798;SDS011;66989;50.426;15.352;2023-04-25T02:52:11;5.40;;;3.13;;
77798;SDS011;66989;50.426;15.352;2023-04-25T02:54:37;6.03;;;3.40;;
77798;SDS011;66989;50.426;15.352;2023-04-25T02:57:03;5.07;;;3.88;;
77798;SDS011;66989;50.426;15.352;2023-04-25T02:59:29;6.22;;;4.05;;
77798;SDS011;66989;50.426;15.352;2023-04-25T03:01:54;6.88;;;4.20;;
77798;SDS011;66989;50.426;15.352;2023-04-25T03:04:20;5.80;;;3.75;;
77798;SDS011;66989;50.426;15.352;2023-04-25T03:06:48;6.63;;;4.65;;
77798;SDS011;66989;50.426;15.352;2023-04-25T03:09:17;5.90;;;4.38;;
77798;SDS011;66989;50.426;15.352;2023-04-25T03:11:43;4.63;;;3.58;;
77798;SDS011;66989;50.426;15.352;2023-04-25T03:14:09;7.20;;;4.40;;
77798;SDS011;66989;50.426;15.352;2023-04-25T03:16:35;5.63;;;4.13;;
77798;SDS011;66989;50.426;15.352;2023-04-25T03:19:00;6.18;;;4.50;;
77798;SDS011;66989;50.426;15.352;2023-04-25T03:21:26;5.07;;;4.03;;
77798;SDS011;66989;50.426;15.352;2023-04-25T03:23:51;7.55;;;3.95;;
77798;SDS011;66989;50.426;15.352;2023-04-25T03:26:17;6.80;;;4.13;;
77798;SDS011;66989;50.426;15.352;2023-04-25T03:28:42;5.60;;;4.17;;
77798;SDS011;66989;50.426;15.352;2023-04-25T03:31:07;6.53;;;3.93;;
77798;SDS011;66989;50.426;15.352;2023-04-25T03:33:33;6.10;;;4.28;;
77798;SDS011;66989;50.426;15.352;2023-04-25T03:35:58;6.00;;;4.00;;
77798;SDS011;66989;50.426;15.352;2023-04-25T03:38:23;6.30;;;4.18;;
77798;SDS011;66989;50.426;15.352;2023-04-25T03:40:49;7.77;;;5.30;;
77798;SDS011;66989;50.426;15.352;2023-04-25T03:43:15;7.70;;;5.47;;
77798;SDS011;66989;50.426;15.352;2023-04-25T03:45:41;8.25;;;5.40;;
77798;SDS011;66989;50.426;15.352;2023-04-25T03:48:06;7.63;;;5.43;;
77798;SDS011;66989;50.426;15.352;2023-04-25T03:50:32;8.52;;;4.90;;
77798;SDS011;66989;50.426;15.352;2023-04-25T03:52:57;6.03;;;4.50;;
77798;SDS011;66989;50.426;15.352;2023-04-25T03:55:23;6.55;;;4.28;;
77798;SDS011;66989;50.426;15.352;2023-04-25T03:57:48;6.72;;;4.60;;
77798;SDS011;66989;50.426;15.352;2023-04-25T04:00:14;7.10;;;4.30;;
77798;SDS011;66989;50.426;15.352;2023-04-25T04:02:39;9.60;;;5.38;;
77798;SDS011;66989;50.426;15.352;2023-04-25T04:05:05;6.43;;;4.40;;
77798;SDS011;66989;50.426;15.352;2023-04-25T04:07:30;8.35;;;5.28;;
77798;SDS011;66989;50.426;15.352;2023-04-25T04:09:57;17.55;;;11.70;;
77798;SDS011;66989;50.426;15.352;2023-04-25T04:12:23;9.98;;;5.55;;
77798;SDS011;66989;50.426;15.352;2023-04-25T04:14:48;8.90;;;5.25;;
77798;SDS011;66989;50.426;15.352;2023-04-25T04:17:14;6.53;;;4.63;;
77798;SDS011;66989;50.426;15.352;2023-04-25T04:19:39;9.10;;;5.57;;
77798;SDS011;66989;50.426;15.352;2023-04-25T04:22:04;7.45;;;4.65;;
77798;SDS011;66989;50.426;15.352;2023-04-25T04:24:30;7.72;;;5.32;;
77798;SDS011;66989;50.426;15.352;2023-04-25T04:26:55;6.55;;;4.28;;
77798;SDS011;66989;50.426;15.352;2023-04-25T04:29:21;6.63;;;4.82;;
77798;SDS011;66989;50.426;15.352;2023-04-25T04:31:49;7.63;;;5.95;;
77798;SDS011;66989;50.426;15.352;2023-04-25T04:34:15;7.25;;;5.03;;
77798;SDS011;66989;50.426;15.352;2023-04-25T04:36:41;9.20;;;7.30;;
77798;SDS011;66989;50.426;15.352;2023-04-25T04:39:07;16.17;;;9.52;;
77798;SDS011;66989;50.426;15.352;2023-04-25T04:43:59;24.87;;;12.23;;
77798;SDS011;66989;50.426;15.352;2023-04-25T04:46:26;18.08;;;11.57;;
77798;SDS011;66989;50.426;15.352;2023-04-25T04:48:52;11.93;;;9.93;;
77798;SDS011;66989;50.426;15.352;2023-04-25T04:51:18;11.35;;;7.13;;
77798;SDS011;66989;50.426;15.352;2023-04-25T04:53:45;10.25;;;7.10;;
77798;SDS011;66989;50.426;15.352;2023-04-25T04:56:10;10.30;;;6.32;;
77798;SDS011;66989;50.426;15.352;2023-04-25T04:58:36;6.35;;;4.90;;
77798;SDS011;66989;50.426;15.352;2023-04-25T05:01:01;8.63;;;5.90;;
77798;SDS011;66989;50.426;15.352;2023-04-25T05:03:27;6.43;;;4.55;;
77798;SDS011;66989;50.426;15.352;2023-04-25T05:05:53;11.07;;;8.00;;
77798;SDS011;66989;50.426;15.352;2023-04-25T05:08:18;12.40;;;7.82;;
77798;SDS011;66989;50.426;15.352;2023-04-25T05:10:43;8.07;;;5.82;;
77798;SDS011;66989;50.426;15.352;2023-04-25T05:13:09;7.80;;;5.43;;
77798;SDS011;66989;50.426;15.352;2023-04-25T05:15:34;8.30;;;5.60;;
77798;SDS011;66989;50.426;15.352;2023-04-25T05:18:00;5.82;;;4.57;;
77798;SDS011;66989;50.426;15.352;2023-04-25T05:20:26;6.70;;;4.43;;
77798;SDS011;66989;50.426;15.352;2023-04-25T05:22:51;6.43;;;5.07;;
77798;SDS011;66989;50.426;15.352;2023-04-25T05:25:16;7.33;;;5.43;;
77798;SDS011;66989;50.426;15.352;2023-04-25T05:27:42;7.50;;;5.55;;
77798;SDS011;66989;50.426;15.352;2023-04-25T05:30:07;6.10;;;5.30;;
77798;SDS011;66989;50.426;15.352;2023-04-25T05:32:34;7.90;;;4.90;;
77798;SDS011;66989;50.426;15.352;2023-04-25T05:35:00;11.63;;;5.68;;
77798;SDS011;66989;50.426;15.352;2023-04-25T05:37:26;8.15;;;5.35;;
77798;SDS011;66989;50.426;15.352;2023-04-25T05:39:51;7.35;;;4.07;;
77798;SDS011;66989;50.426;15.352;2023-04-25T05:42:16;6.47;;;4.10;;
77798;SDS011;66989;50.426;15.352;2023-04-25T05:44:42;5.88;;;4.40;;
77798;SDS011;66989;50.426;15.352;2023-04-25T05:47:07;4.93;;;3.80;;
77798;SDS011;66989;50.426;15.352;2023-04-25T05:49:33;4.25;;;3.03;;
77798;SDS011;66989;50.426;15.352;2023-04-25T05:51:59;5.35;;;3.85;;
77798;SDS011;66989;50.426;15.352;2023-04-25T05:54:24;5.22;;;4.25;;
77798;SDS011;66989;50.426;15.352;2023-04-25T05:56:50;5.70;;;4.82;;
77798;SDS011;66989;50.426;15.352;2023-04-25T05:59:15;6.45;;;3.92;;
77798;SDS011;66989;50.426;15.352;2023-04-25T06:01:41;4.90;;;4.07;;
77798;SDS011;66989;50.426;15.352;2023-04-25T06:04:06;6.32;;;4.97;;
77798;SDS011;66989;50.426;15.352;2023-04-25T06:06:32;6.57;;;4.00;;
77798;SDS011;66989;50.426;15.352;2023-04-25T06:08:57;7.38;;;4.25;;
77798;SDS011;66989;50.426;15.352;2023-04-25T06:11:23;5.95;;;4.28;;
77798;SDS011;66989;50.426;15.352;2023-04-25T06:13:48;6.90;;;4.30;;
77798;SDS011;66989;50.426;15.352;2023-04-25T06:16:13;6.35;;;4.10;;
77798;SDS011;66989;50.426;15.352;2023-04-25T06:18:39;4.70;;;3.53;;
77798;SDS011;66989;50.426;15.352;2023-04-25T06:21:04;7.13;;;2.97;;
77798;SDS011;66989;50.426;15.352;2023-04-25T06:23:30;4.32;;;3.25;;
77798;SDS011;66989;50.426;15.352;2023-04-25T06:25:55;5.10;;;2.63;;
77798;SDS011;66989;50.426;15.352;2023-04-25T06:28:20;4.40;;;3.38;;
77798;SDS011;66989;50.426;15.352;2023-04-25T06:30:47;4.97;;;3.45;;
77798;SDS011;66989;50.426;15.352;2023-04-25T06:33:12;5.18;;;2.97;;
77798;SDS011;66989;50.426;15.352;2023-04-25T06:35:38;6.45;;;4.22;;
77798;SDS011;66989;50.426;15.352;2023-04-25T06:38:04;5.55;;;3.58;;
77798;SDS011;66989;50.426;15.352;2023-04-25T06:40:29;7.03;;;4.13;;
77798;SDS011;66989;50.426;15.352;2023-04-25T06:42:55;5.10;;;3.75;;
77798;SDS011;66989;50.426;15.352;2023-04-25T06:45:20;5.00;;;4.10;;
77798;SDS011;66989;50.426;15.352;2023-04-25T06:47:45;5.18;;;4.15;;
77798;SDS011;66989;50.426;15.352;2023-04-25T06:50:11;6.03;;;3.08;;
77798;SDS011;66989;50.426;15.352;2023-04-25T06:52:36;5.05;;;3.38;;
77798;SDS011;66989;50.426;15.352;2023-04-25T06:55:02;8.85;;;3.83;;
77798;SDS011;66989;50.426;15.352;2023-04-25T06:57:27;5.15;;;3.60;;
77798;SDS011;66989;50.426;15.352;2023-04-25T06:59:53;3.63;;;2.78;;
77798;SDS011;66989;50.426;15.352;2023-04-25T07:02:19;4.28;;;3.10;;
77798;SDS011;66989;50.426;15.352;2023-04-25T07:04:46;5.20;;;2.53;;
77798;SDS011;66989;50.426;15.352;2023-04-25T07:07:11;7.63;;;3.25;;
77798;SDS011;66989;50.426;15.352;2023-04-25T07:09:36;4.75;;;3.20;;
77798;SDS011;66989;50.426;15.352;2023-04-25T07:12:02;5.30;;;3.80;;
77798;SDS011;66989;50.426;15.352;2023-04-25T07:14:28;3.97;;;3.08;;
77798;SDS011;66989;50.426;15.352;2023-04-25T07:16:53;7.47;;;2.53;;
77798;SDS011;66989;50.426;15.352;2023-04-25T07:19:20;5.28;;;3.35;;
77798;SDS011;66989;50.426;15.352;2023-04-25T07:21:46;4.00;;;2.78;;
77798;SDS011;66989;50.426;15.352;2023-04-25T07:24:11;4.72;;;3.40;;
77798;SDS011;66989;50.426;15.352;2023-04-25T07:26:37;3.97;;;3.38;;
77798;SDS011;66989;50.426;15.352;2023-04-25T07:29:02;9.75;;;6.40;;
77798;SDS011;66989;50.426;15.352;2023-04-25T07:31:28;13.30;;;8.80;;
77798;SDS011;66989;50.426;15.352;2023-04-25T07:33:53;7.15;;;5.47;;
77798;SDS011;66989;50.426;15.352;2023-04-25T07:36:19;9.90;;;6.43;;
77798;SDS011;66989;50.426;15.352;2023-04-25T07:38:44;4.88;;;3.90;;
77798;SDS011;66989;50.426;15.352;2023-04-25T07:41:10;6.30;;;3.28;;
77798;SDS011;66989;50.426;15.352;2023-04-25T07:43:35;4.55;;;3.80;;
77798;SDS011;66989;50.426;15.352;2023-04-25T07:46:00;7.70;;;4.25;;
77798;SDS011;66989;50.426;15.352;2023-04-25T07:48:26;6.88;;;3.03;;
77798;SDS011;66989;50.426;15.352;2023-04-25T07:50:51;4.68;;;3.72;;
77798;SDS011;66989;50.426;15.352;2023-04-25T07:53:17;6.75;;;4.28;;
77798;SDS011;66989;50.426;15.352;2023-04-25T07:55:43;6.75;;;4.63;;
77798;SDS011;66989;50.426;15.352;2023-04-25T07:58:09;4.15;;;3.70;;
77798;SDS011;66989;50.426;15.352;2023-04-25T08:00:36;4.18;;;1.92;;
77798;SDS011;66989;50.426;15.352;2023-04-25T08:03:01;7.18;;;4.45;;
77798;SDS011;66989;50.426;15.352;2023-04-25T08:05:28;4.07;;;3.20;;
77798;SDS011;66989;50.426;15.352;2023-04-25T08:07:55;3.67;;;2.42;;
77798;SDS011;66989;50.426;15.352;2023-04-25T08:10:22;3.65;;;3.15;;
77798;SDS011;66989;50.426;15.352;2023-04-25T08:12:48;5.70;;;3.78;;
77798;SDS011;66989;50.426;15.352;2023-04-25T08:15:13;5.18;;;3.05;;
77798;SDS011;66989;50.426;15.352;2023-04-25T08:17:39;4.13;;;3.40;;
77798;SDS011;66989;50.426;15.352;2023-04-25T08:20:04;3.95;;;3.03;;
77798;SDS011;66989;50.426;15.352;2023-04-25T08:22:32;4.70;;;4.15;;
77798;SDS011;66989;50.426;15.352;2023-04-25T08:24:58;8.40;;;5.57;;
77798;SDS011;66989;50.426;15.352;2023-04-25T08:27:23;6.05;;;3.88;;
77798;SDS011;66989;50.426;15.352;2023-04-25T08:29:49;5.05;;;3.90;;
77798;SDS011;66989;50.426;15.352;2023-04-25T08:32:15;4.78;;;4.05;;
77798;SDS011;66989;50.426;15.352;2023-04-25T08:34:41;3.85;;;2.95;;
77798;SDS011;66989;50.426;15.352;2023-04-25T08:37:07;5.95;;;3.92;;
77798;SDS011;66989;50.426;15.352;2023-04-25T08:39:35;5.57;;;3.88;;
77798;SDS011;66989;50.426;15.352;2023-04-25T08:42:05;9.88;;;7.25;;
77798;SDS011;66989;50.426;15.352;2023-04-25T08:44:35;6.10;;;5.18;;
77798;SDS011;66989;50.426;15.352;2023-04-25T08:47:04;7.22;;;4.80;;
77798;SDS011;66989;50.426;15.352;2023-04-25T08:49:31;7.03;;;4.63;;
77798;SDS011;66989;50.426;15.352;2023-04-25T08:52:02;7.70;;;4.43;;
77798;SDS011;66989;50.426;15.352;2023-04-25T08:54:32;5.05;;;3.75;;
77798;SDS011;66989;50.426;15.352;2023-04-25T08:57:00;5.53;;;4.57;;
77798;SDS011;66989;50.426;15.352;2023-04-25T08:59:29;6.45;;;4.35;;
77798;SDS011;66989;50.426;15.352;2023-04-25T09:01:56;7.75;;;5.22;;
77798;SDS011;66989;50.426;15.352;2023-04-25T09:04:22;7.20;;;4.60;;
77798;SDS011;66989;50.426;15.352;2023-04-25T09:06:47;7.85;;;5.15;;
77798;SDS011;66989;50.426;15.352;2023-04-25T09:09:13;6.32;;;4.90;;
77798;SDS011;66989;50.426;15.352;2023-04-25T09:11:40;6.45;;;5.85;;
77798;SDS011;66989;50.426;15.352;2023-04-25T09:16:56;12.90;;;5.53;;
77798;SDS011;66989;50.426;15.352;2023-04-25T09:19:27;4.70;;;4.22;;
77798;SDS011;66989;50.426;15.352;2023-04-25T09:22:04;6.28;;;4.80;;
77798;SDS011;66989;50.426;15.352;2023-04-25T09:27:09;7.63;;;6.00;;
77798;SDS011;66989;50.426;15.352;2023-04-25T09:29:36;8.85;;;6.28;;
77798;SDS011;66989;50.426;15.352;2023-04-25T09:32:22;9.77;;;7.32;;
77798;SDS011;66989;50.426;15.352;2023-04-25T09:34:55;6.05;;;4.70;;
77798;SDS011;66989;50.426;15.352;2023-04-25T09:37:22;8.00;;;4.63;;
77798;SDS011;66989;50.426;15.352;2023-04-25T09:39:49;8.88;;;4.70;;
77798;SDS011;66989;50.426;15.352;2023-04-25T09:42:21;7.85;;;5.63;;
77798;SDS011;66989;50.426;15.352;2023-04-25T09:44:49;7.63;;;5.50;;
77798;SDS011;66989;50.426;15.352;2023-04-25T09:47:17;6.38;;;5.25;;
77798;SDS011;66989;50.426;15.352;2023-04-25T09:49:43;8.63;;;5.47;;
77798;SDS011;66989;50.426;15.352;2023-04-25T09:52:27;6.43;;;4.90;;
77798;SDS011;66989;50.426;15.352;2023-04-25T09:54:55;6.65;;;5.88;;
77798;SDS011;66989;50.426;15.352;2023-04-25T09:57:21;8.03;;;5.53;;
77798;SDS011;66989;50.426;15.352;2023-04-25T09:59:52;5.28;;;3.90;;
77798;SDS011;66989;50.426;15.352;2023-04-25T10:02:19;5.07;;;4.07;;
77798;SDS011;66989;50.426;15.352;2023-04-25T10:04:50;6.88;;;5.15;;
77798;SDS011;66989;50.426;15.352;2023-04-25T10:07:18;4.18;;;3.25;;
77798;SDS011;66989;50.426;15.352;2023-04-25T10:09:47;4.70;;;4.30;;
77798;SDS011;66989;50.426;15.352;2023-04-25T10:12:15;6.38;;;4.63;;
77798;SDS011;66989;50.426;15.352;2023-04-25T10:14:41;6.15;;;5.15;;
77798;SDS011;66989;50.426;15.352;2023-04-25T10:17:08;5.70;;;4.95;;
77798;SDS011;66989;50.426;15.352;2023-04-25T10:19:35;5.13;;;4.63;;
77798;SDS011;66989;50.426;15.352;2023-04-25T10:24:34;6.43;;;4.30;;
77798;SDS011;66989;50.426;15.352;2023-04-25T10:27:01;6.63;;;4.85;;
77798;SDS011;66989;50.426;15.352;2023-04-25T10:29:27;6.28;;;5.03;;
77798;SDS011;66989;50.426;15.352;2023-04-25T10:31:52;4.60;;;4.10;;
77798;SDS011;66989;50.426;15.352;2023-04-25T10:34:19;4.10;;;3.03;;
77798;SDS011;66989;50.426;15.352;2023-04-25T10:36:49;4.13;;;3.72;;
77798;SDS011;66989;50.426;15.352;2023-04-25T10:39:24;4.25;;;3.80;;
77798;SDS011;66989;50.426;15.352;2023-04-25T10:41:53;4.13;;;3.58;;
77798;SDS011;66989;50.426;15.352;2023-04-25T10:44:21;4.90;;;3.78;;
77798;SDS011;66989;50.426;15.352;2023-04-25T10:46:46;6.07;;;4.32;;
77798;SDS011;66989;50.426;15.352;2023-04-25T10:49:28;4.18;;;3.88;;
77798;SDS011;66989;50.426;15.352;2023-04-25T10:52:19;5.30;;;4.13;;
77798;SDS011;66989;50.426;15.352;2023-04-25T10:54:51;4.10;;;3.70;;
77798;SDS011;66989;50.426;15.352;2023-04-25T11:04:55;3.50;;;3.20;;
77798;SDS011;66989;50.426;15.352;2023-04-25T11:10:03;4.60;;;3.33;;
77798;SDS011;66989;50.426;15.352;2023-04-25T11:12:31;5.07;;;3.95;;
77798;SDS011;66989;50.426;15.352;2023-04-25T11:15:15;7.88;;;4.63;;
77798;SDS011;66989;50.426;15.352;2023-04-25T11:17:40;5.07;;;4.57;;
77798;SDS011;66989;50.426;15.352;2023-04-25T11:20:07;5.28;;;4.20;;
77798;SDS011;66989;50.426;15.352;2023-04-25T11:22:37;5.00;;;4.50;;
77798;SDS011;66989;50.426;15.352;2023-04-25T11:25:06;6.63;;;4.30;;
77798;SDS011;66989;50.426;15.352;2023-04-25T11:27:32;5.80;;;3.85;;
77798;SDS011;66989;50.426;15.352;2023-04-25T11:30:12;4.80;;;4.32;;
77798;SDS011;66989;50.426;15.352;2023-04-25T11:32:41;4.72;;;4.18;;
77798;SDS011;66989;50.426;15.352;2023-04-25T11:35:08;5.90;;;4.28;;
77798;SDS011;66989;50.426;15.352;2023-04-25T11:40:00;4.77;;;4.33;;
77798;SDS011;66989;50.426;15.352;2023-04-25T11:42:25;4.68;;;4.28;;
77798;SDS011;66989;50.426;15.352;2023-04-25T11:44:51;5.82;;;3.92;;
77798;SDS011;66989;50.426;15.352;2023-04-25T11:47:17;4.35;;;3.50;;
77798;SDS011;66989;50.426;15.352;2023-04-25T11:49:42;6.05;;;4.25;;
77798;SDS011;66989;50.426;15.352;2023-04-25T11:52:08;7.55;;;4.18;;
77798;SDS011;66989;50.426;15.352;2023-04-25T11:54:37;5.25;;;4.28;;
77798;SDS011;66989;50.426;15.352;2023-04-25T11:57:03;5.22;;;4.25;;
77798;SDS011;66989;50.426;15.352;2023-04-25T11:59:29;4.70;;;3.65;;
77798;SDS011;66989;50.426;15.352;2023-04-25T12:01:55;4.30;;;3.60;;
77798;SDS011;66989;50.426;15.352;2023-04-25T12:04:23;4.35;;;3.95;;
77798;SDS011;66989;50.426;15.352;2023-04-25T12:06:52;4.55;;;3.47;;
77798;SDS011;66989;50.426;15.352;2023-04-25T12:09:19;4.07;;;2.15;;
77798;SDS011;66989;50.426;15.352;2023-04-25T12:11:53;6.10;;;3.00;;
77798;SDS011;66989;50.426;15.352;2023-04-25T12:14:23;3.55;;;2.25;;
77798;SDS011;66989;50.426;15.352;2023-04-25T12:16:51;4.05;;;2.20;;
77798;SDS011;66989;50.426;15.352;2023-04-25T12:19:18;3.83;;;1.77;;
77798;SDS011;66989;50.426;15.352;2023-04-25T12:24:14;3.90;;;2.60;;
77798;SDS011;66989;50.426;15.352;2023-04-25T12:26:47;3.83;;;2.42;;
77798;SDS011;66989;50.426;15.352;2023-04-25T12:31:50;5.47;;;2.92;;
77798;SDS011;66989;50.426;15.352;2023-04-25T12:34:16;4.82;;;2.83;;
77798;SDS011;66989;50.426;15.352;2023-04-25T12:36:42;4.65;;;3.40;;
77798;SDS011;66989;50.426;15.352;2023-04-25T12:39:08;4.05;;;2.50;;
77798;SDS011;66989;50.426;15.352;2023-04-25T12:41:34;5.28;;;2.03;;
77798;SDS011;66989;50.426;15.352;2023-04-25T12:43:59;3.03;;;2.10;;
77798;SDS011;66989;50.426;15.352;2023-04-25T12:46:25;3.38;;;3.08;;
77798;SDS011;66989;50.426;15.352;2023-04-25T12:48:50;2.72;;;2.05;;
77798;SDS011;66989;50.426;15.352;2023-04-25T12:51:16;3.25;;;2.83;;
77798;SDS011;66989;50.426;15.352;2023-04-25T12:53:41;3.22;;;1.85;;
77798;SDS011;66989;50.426;15.352;2023-04-25T12:56:08;2.33;;;2.08;;
77798;SDS011;66989;50.426;15.352;2023-04-25T12:58:34;4.05;;;1.42;;
77798;SDS011;66989;50.426;15.352;2023-04-25T13:00:59;2.58;;;1.77;;
77798;SDS011;66989;50.426;15.352;2023-04-25T13:03:25;4.60;;;3.05;;
77798;SDS011;66989;50.426;15.352;2023-04-25T13:05:50;3.85;;;2.63;;
77798;SDS011;66989;50.426;15.352;2023-04-25T13:08:17;6.22;;;4.22;;
77798;SDS011;66989;50.426;15.352;2023-04-25T13:10:47;5.38;;;3.05;;
77798;SDS011;66989;50.426;15.352;2023-04-25T13:13:13;5.53;;;3.13;;
77798;SDS011;66989;50.426;15.352;2023-04-25T13:15:38;4.35;;;3.30;;
77798;SDS011;66989;50.426;15.352;2023-04-25T13:18:04;4.57;;;2.58;;
77798;SDS011;66989;50.426;15.352;2023-04-25T13:20:30;4.55;;;2.60;;
77798;SDS011;66989;50.426;15.352;2023-04-25T13:22:57;3.30;;;2.05;;
77798;SDS011;66989;50.426;15.352;2023-04-25T13:25:22;3.05;;;1.77;;
77798;SDS011;66989;50.426;15.352;2023-04-25T13:27:48;2.35;;;1.92;;
77798;SDS011;66989;50.426;15.352;2023-04-25T13:30:13;4.28;;;3.10;;
77798;SDS011;66989;50.426;15.352;2023-04-25T13:32:43;3.38;;;2.00;;
77798;SDS011;66989;50.426;15.352;2023-04-25T13:35:11;4.18;;;1.50;;
77798;SDS011;66989;50.426;15.352;2023-04-25T13:37:38;2.28;;;1.95;;
77798;SDS011;66989;50.426;15.352;2023-04-25T13:40:04;3.05;;;1.13;;
77798;SDS011;66989;50.426;15.352;2023-04-25T13:42:33;2.58;;;1.52;;
77798;SDS011;66989;50.426;15.352;2023-04-25T13:44:59;4.10;;;1.52;;
77798;SDS011;66989;50.426;15.352;2023-04-25T13:47:25;3.78;;;1.70;;
77798;SDS011;66989;50.426;15.352;2023-04-25T13:49:52;3.55;;;1.52;;
77798;SDS011;66989;50.426;15.352;2023-04-25T13:52:18;3.33;;;2.28;;
77798;SDS011;66989;50.426;15.352;2023-04-25T13:54:43;4.10;;;2.67;;
77798;SDS011;66989;50.426;15.352;2023-04-25T13:57:09;4.00;;;2.00;;
77798;SDS011;66989;50.426;15.352;2023-04-25T13:59:36;8.82;;;2.75;;
77798;SDS011;66989;50.426;15.352;2023-04-25T14:02:01;3.92;;;3.20;;
77798;SDS011;66989;50.426;15.352;2023-04-25T14:04:27;3.30;;;2.33;;
77798;SDS011;66989;50.426;15.352;2023-04-25T14:06:53;2.30;;;2.10;;
77798;SDS011;66989;50.426;15.352;2023-04-25T14:09:18;4.00;;;2.85;;
77798;SDS011;66989;50.426;15.352;2023-04-25T14:11:45;2.67;;;2.03;;
77798;SDS011;66989;50.426;15.352;2023-04-25T14:14:11;3.78;;;2.60;;
77798;SDS011;66989;50.426;15.352;2023-04-25T14:16:38;2.35;;;1.73;;
77798;SDS011;66989;50.426;15.352;2023-04-25T14:19:03;3.08;;;2.28;;
77798;SDS011;66989;50.426;15.352;2023-04-25T14:21:29;6.53;;;3.33;;
77798;SDS011;66989;50.426;15.352;2023-04-25T14:23:57;5.32;;;3.45;;
77798;SDS011;66989;50.426;15.352;2023-04-25T14:26:22;6.88;;;3.05;;
77798;SDS011;66989;50.426;15.352;2023-04-25T14:28:47;5.70;;;2.85;;
77798;SDS011;66989;50.426;15.352;2023-04-25T14:31:13;6.03;;;3.00;;
77798;SDS011;66989;50.426;15.352;2023-04-25T14:33:38;3.67;;;3.33;;
77798;SDS011;66989;50.426;15.352;2023-04-25T14:36:07;5.30;;;2.92;;
77798;SDS011;66989;50.426;15.352;2023-04-25T14:38:32;4.07;;;2.53;;
77798;SDS011;66989;50.426;15.352;2023-04-25T14:40:58;3.45;;;2.40;;
77798;SDS011;66989;50.426;15.352;2023-04-25T14:43:23;2.00;;;1.73;;
77798;SDS011;66989;50.426;15.352;2023-04-25T14:45:48;2.42;;;2.15;;
77798;SDS011;66989;50.426;15.352;2023-04-25T14:48:14;3.25;;;1.83;;
77798;SDS011;66989;50.426;15.352;2023-04-25T14:50:40;3.90;;;1.63;;
77798;SDS011;66989;50.426;15.352;2023-04-25T14:53:05;2.90;;;1.67;;
77798;SDS011;66989;50.426;15.352;2023-04-25T14:55:31;2.85;;;1.95;;
77798;SDS011;66989;50.426;15.352;2023-04-25T14:57:56;3.47;;;2.42;;